sim
Sign-in with your pilot id or email,
or register
Callsign
Passwort

Schedule Details

Flight Number: DLH31
Departure: Hamburg Airport (EDDH) at 18:00
Arrival: Frankfurt Airport (EDDF) at 19:10
Route: Lufthansa Passenger Schedule. Enter filed route here before submitting Pirep.

Weather Information
Getting current METAR information for EDDH 241520Z 21006KT 9000 -SNRA FEW009 BKN012 BKN023 02/01 Q0997 BECMG BKN025
Getting current METAR information for EDDF 241520Z 25010KT 9999 FEW023 BKN040 03/M01 Q1001 R25C/29//95 R25L/29//95 R18/29//95 NOSIG

Schedule Frequency

Route Map